sensor_id;sensor_type;location;lat;lon;timestamp;pressure;altitude;pressure_sealevel;temperature;humidity
79370;BME280;68835;53.096;17.932;2023-06-24T00:00:37;101170.09;;;17.34;64.54
79370;BME280;68835;53.096;17.932;2023-06-24T00:03:24;101171.14;;;17.35;64.83
79370;BME280;68835;53.096;17.932;2023-06-24T00:05:50;101173.26;;;17.36;64.58
79370;BME280;68835;53.096;17.932;2023-06-24T00:08:17;101172.56;;;17.34;64.90
79370;BME280;68835;53.096;17.932;2023-06-24T00:10:46;101174.52;;;17.33;64.89
79370;BME280;68835;53.096;17.932;2023-06-24T00:13:16;101175.92;;;17.33;65.10
79370;BME280;68835;53.096;17.932;2023-06-24T00:15:44;101178.80;;;17.31;65.23
79370;BME280;68835;53.096;17.932;2023-06-24T00:18:10;101175.98;;;17.29;65.55
79370;BME280;68835;53.096;17.932;2023-06-24T00:20:37;101171.41;;;17.27;65.57
79370;BME280;68835;53.096;17.932;2023-06-24T00:23:05;101170.55;;;17.24;65.52
79370;BME280;68835;53.096;17.932;2023-06-24T00:25:32;101173.93;;;17.21;65.62
79370;BME280;68835;53.096;17.932;2023-06-24T00:27:59;101168.63;;;17.23;66.05
79370;BME280;68835;53.096;17.932;2023-06-24T00:30:26;101170.38;;;17.25;66.12
79370;BME280;68835;53.096;17.932;2023-06-24T00:32:52;101171.79;;;17.25;66.34
79370;BME280;68835;53.096;17.932;2023-06-24T00:35:19;101170.92;;;17.23;66.35
79370;BME280;68835;53.096;17.932;2023-06-24T00:37:46;101170.75;;;17.22;66.51
79370;BME280;68835;53.096;17.932;2023-06-24T00:40:13;101168.27;;;17.22;66.92
79370;BME280;68835;53.096;17.932;2023-06-24T00:42:44;101166.16;;;17.21;66.89
79370;BME280;68835;53.096;17.932;2023-06-24T00:45:12;101168.30;;;17.19;66.83
79370;BME280;68835;53.096;17.932;2023-06-24T00:47:39;101175.06;;;17.16;66.77
79370;BME280;68835;53.096;17.932;2023-06-24T00:50:08;101172.95;;;17.14;66.92
79370;BME280;68835;53.096;17.932;2023-06-24T00:52:34;101174.54;;;17.17;66.66
79370;BME280;68835;53.096;17.932;2023-06-24T00:55:04;101173.63;;;17.17;66.71
79370;BME280;68835;53.096;17.932;2023-06-24T00:57:31;101170.98;;;17.17;66.66
79370;BME280;68835;53.096;17.932;2023-06-24T00:59:59;101177.36;;;17.16;66.75
79370;BME280;68835;53.096;17.932;2023-06-24T01:02:26;101178.61;;;17.15;66.84
79370;BME280;68835;53.096;17.932;2023-06-24T01:04:54;101178.79;;;17.14;67.01
79370;BME280;68835;53.096;17.932;2023-06-24T01:07:21;101188.36;;;17.12;67.07
79370;BME280;68835;53.096;17.932;2023-06-24T01:09:48;101188.56;;;17.09;67.09
79370;BME280;68835;53.096;17.932;2023-06-24T01:12:15;101188.60;;;17.06;67.03
79370;BME280;68835;53.096;17.932;2023-06-24T01:14:42;101190.73;;;17.04;66.81
79370;BME280;68835;53.096;17.932;2023-06-24T01:17:14;101194.45;;;17.02;66.91
79370;BME280;68835;53.096;17.932;2023-06-24T01:25:33;101194.64;;;17.03;66.92
79370;BME280;68835;53.096;17.932;2023-06-24T01:33:35;101203.48;;;17.03;67.04
79370;BME280;68835;53.096;17.932;2023-06-24T01:36:05;101206.66;;;17.03;67.46
79370;BME280;68835;53.096;17.932;2023-06-24T01:38:39;101208.59;;;17.03;67.83
79370;BME280;68835;53.096;17.932;2023-06-24T01:41:12;101207.36;;;17.03;67.90
79370;BME280;68835;53.096;17.932;2023-06-24T01:43:43;101213.23;;;17.00;67.65
79370;BME280;68835;53.096;17.932;2023-06-24T01:46:09;101213.27;;;16.97;67.74
79370;BME280;68835;53.096;17.932;2023-06-24T01:48:42;101209.21;;;16.95;67.75
79370;BME280;68835;53.096;17.932;2023-06-24T01:51:12;101208.34;;;16.93;67.67
79370;BME280;68835;53.096;17.932;2023-06-24T01:53:46;101209.23;;;16.90;67.96
79370;BME280;68835;53.096;17.932;2023-06-24T01:56:15;101209.45;;;16.88;67.82
79370;BME280;68835;53.096;17.932;2023-06-24T01:58:45;101206.47;;;16.84;67.90
79370;BME280;68835;53.096;17.932;2023-06-24T02:01:14;101208.45;;;16.80;67.90
79370;BME280;68835;53.096;17.932;2023-06-24T02:03:42;101206.70;;;16.77;67.95
79370;BME280;68835;53.096;17.932;2023-06-24T02:06:10;101204.98;;;16.73;68.14
79370;BME280;68835;53.096;17.932;2023-06-24T02:08:39;101205.83;;;16.76;68.41
79370;BME280;68835;53.096;17.932;2023-06-24T02:11:09;101207.60;;;16.75;68.16
79370;BME280;68835;53.096;17.932;2023-06-24T02:13:39;101209.04;;;16.74;68.16
79370;BME280;68835;53.096;17.932;2023-06-24T02:16:12;101209.19;;;16.72;68.39
79370;BME280;68835;53.096;17.932;2023-06-24T02:18:41;101211.86;;;16.70;68.44
79370;BME280;68835;53.096;17.932;2023-06-24T02:21:09;101209.73;;;16.68;68.10
79370;BME280;68835;53.096;17.932;2023-06-24T02:23:37;101212.58;;;16.67;67.93
79370;BME280;68835;53.096;17.932;2023-06-24T02:26:06;101210.48;;;16.63;68.15
79370;BME280;68835;53.096;17.932;2023-06-24T02:28:33;101218.45;;;16.62;68.29
79370;BME280;68835;53.096;17.932;2023-06-24T02:31:03;101215.10;;;16.62;68.51
79370;BME280;68835;53.096;17.932;2023-06-24T02:33:30;101220.04;;;16.61;68.29
79370;BME280;68835;53.096;17.932;2023-06-24T02:35:57;101220.41;;;16.58;68.57
79370;BME280;68835;53.096;17.932;2023-06-24T02:38:23;101219.57;;;16.55;68.84
79370;BME280;68835;53.096;17.932;2023-06-24T02:40:51;101219.41;;;16.52;69.03
79370;BME280;68835;53.096;17.932;2023-06-24T02:43:18;101214.65;;;16.49;69.39
79370;BME280;68835;53.096;17.932;2023-06-24T02:45:45;101212.36;;;16.50;69.31
79370;BME280;68835;53.096;17.932;2023-06-24T02:48:15;101216.23;;;16.52;69.59
79370;BME280;68835;53.096;17.932;2023-06-24T02:50:42;101217.81;;;16.52;69.60
79370;BME280;68835;53.096;17.932;2023-06-24T02:53:14;101216.60;;;16.49;69.52
79370;BME280;68835;53.096;17.932;2023-06-24T02:55:42;101214.86;;;16.45;69.70
79370;BME280;68835;53.096;17.932;2023-06-24T02:58:10;101215.06;;;16.42;69.81
79370;BME280;68835;53.096;17.932;2023-06-24T03:00:43;101218.25;;;16.40;69.95
79370;BME280;68835;53.096;17.932;2023-06-24T03:03:12;101219.86;;;16.38;69.89
79370;BME280;68835;53.096;17.932;2023-06-24T03:05:50;101226.73;;;16.40;69.84
79370;BME280;68835;53.096;17.932;2023-06-24T03:08:19;101229.20;;;16.39;69.97
79370;BME280;68835;53.096;17.932;2023-06-24T03:10:49;101234.52;;;16.39;70.22
79370;BME280;68835;53.096;17.932;2023-06-24T03:13:21;101237.52;;;16.38;70.01
79370;BME280;68835;53.096;17.932;2023-06-24T03:15:52;101240.35;;;16.36;70.11
79370;BME280;68835;53.096;17.932;2023-06-24T03:18:19;101240.54;;;16.35;70.26
79370;BME280;68835;53.096;17.932;2023-06-24T03:20:47;101238.42;;;16.34;70.18
79370;BME280;68835;53.096;17.932;2023-06-24T03:23:17;101234.71;;;16.35;70.27
79370;BME280;68835;53.096;17.932;2023-06-24T03:25:43;101232.74;;;16.36;70.49
79370;BME280;68835;53.096;17.932;2023-06-24T03:28:10;101233.10;;;16.38;70.58
79370;BME280;68835;53.096;17.932;2023-06-24T03:30:42;101236.27;;;16.36;70.80
79370;BME280;68835;53.096;17.932;2023-06-24T03:33:09;101237.02;;;16.35;70.79
79370;BME280;68835;53.096;17.932;2023-06-24T03:35:36;101241.42;;;16.33;70.81
79370;BME280;68835;53.096;17.932;2023-06-24T03:38:05;101240.73;;;16.32;70.76
79370;BME280;68835;53.096;17.932;2023-06-24T03:40:32;101244.78;;;16.35;71.08
79370;BME280;68835;53.096;17.932;2023-06-24T03:42:58;101249.71;;;16.38;70.68
79370;BME280;68835;53.096;17.932;2023-06-24T03:45:25;101252.33;;;16.42;70.61
79370;BME280;68835;53.096;17.932;2023-06-24T03:47:54;101258.14;;;16.47;70.92
79370;BME280;68835;53.096;17.932;2023-06-24T03:50:21;101265.02;;;16.45;70.82
79370;BME280;68835;53.096;17.932;2023-06-24T03:52:48;101271.73;;;16.45;70.92
79370;BME280;68835;53.096;17.932;2023-06-24T03:55:15;101283.77;;;16.46;71.05
79370;BME280;68835;53.096;17.932;2023-06-24T03:57:42;101292.59;;;16.43;70.80
79370;BME280;68835;53.096;17.932;2023-06-24T04:00:09;101294.91;;;16.38;71.20
79370;BME280;68835;53.096;17.932;2023-06-24T04:02:43;101299.16;;;16.39;71.15
79370;BME280;68835;53.096;17.932;2023-06-24T04:05:11;101307.61;;;16.42;71.35
79370;BME280;68835;53.096;17.932;2023-06-24T04:07:38;101311.84;;;16.45;71.44
79370;BME280;68835;53.096;17.932;2023-06-24T04:10:06;101314.31;;;16.46;71.55
79370;BME280;68835;53.096;17.932;2023-06-24T04:12:36;101319.96;;;16.46;71.75
79370;BME280;68835;53.096;17.932;2023-06-24T04:15:04;101319.27;;;16.44;71.90
79370;BME280;68835;53.096;17.932;2023-06-24T04:17:33;101316.45;;;16.43;72.04
79370;BME280;68835;53.096;17.932;2023-06-24T04:19:59;101313.77;;;16.47;72.36
79370;BME280;68835;53.096;17.932;2023-06-24T04:22:26;101310.40;;;16.49;72.15
79370;BME280;68835;53.096;17.932;2023-06-24T04:24:56;101310.95;;;16.48;72.39
79370;BME280;68835;53.096;17.932;2023-06-24T04:27:23;101307.60;;;16.46;72.50
79370;BME280;68835;53.096;17.932;2023-06-24T04:29:50;101310.77;;;16.45;72.58
79370;BME280;68835;53.096;17.932;2023-06-24T04:32:17;101307.77;;;16.47;72.82
79370;BME280;68835;53.096;17.932;2023-06-24T04:34:43;101305.80;;;16.52;72.66
79370;BME280;68835;53.096;17.932;2023-06-24T04:37:10;101306.84;;;16.55;72.81
79370;BME280;68835;53.096;17.932;2023-06-24T04:39:37;101302.42;;;16.56;72.54
79370;BME280;68835;53.096;17.932;2023-06-24T04:42:04;101302.57;;;16.60;72.63
79370;BME280;68835;53.096;17.932;2023-06-24T04:44:30;101302.02;;;16.62;72.88
79370;BME280;68835;53.096;17.932;2023-06-24T04:46:57;101301.46;;;16.66;72.68
79370;BME280;68835;53.096;17.932;2023-06-24T04:49:23;101301.62;;;16.73;72.20
79370;BME280;68835;53.096;17.932;2023-06-24T04:51:50;101307.98;;;16.76;71.86
79370;BME280;68835;53.096;17.932;2023-06-24T04:54:16;101309.56;;;16.78;72.02
79370;BME280;68835;53.096;17.932;2023-06-24T04:56:43;101307.41;;;16.82;72.25
79370;BME280;68835;53.096;17.932;2023-06-24T04:59:11;101304.20;;;16.88;72.05
79370;BME280;68835;53.096;17.932;2023-06-24T05:01:38;101307.70;;;16.94;71.54
79370;BME280;68835;53.096;17.932;2023-06-24T05:04:04;101312.60;;;16.97;71.38
79370;BME280;68835;53.096;17.932;2023-06-24T05:06:32;101316.66;;;16.99;71.34
79370;BME280;68835;53.096;17.932;2023-06-24T05:08:58;101314.86;;;17.02;71.07
79370;BME280;68835;53.096;17.932;2023-06-24T05:11:25;101313.63;;;17.05;70.96
79370;BME280;68835;53.096;17.932;2023-06-24T05:13:52;101308.80;;;17.09;71.01
79370;BME280;68835;53.096;17.932;2023-06-24T05:16:18;101306.25;;;17.19;70.74
79370;BME280;68835;53.096;17.932;2023-06-24T05:18:45;101305.27;;;17.30;70.49
79370;BME280;68835;53.096;17.932;2023-06-24T05:21:12;101304.71;;;17.33;69.96
79370;BME280;68835;53.096;17.932;2023-06-24T05:23:38;101305.40;;;17.35;70.05
79370;BME280;68835;53.096;17.932;2023-06-24T05:26:04;101306.05;;;17.42;69.73
79370;BME280;68835;53.096;17.932;2023-06-24T05:28:31;101307.45;;;17.45;69.51
79370;BME280;68835;53.096;17.932;2023-06-24T05:30:58;101307.23;;;17.48;69.19
79370;BME280;68835;53.096;17.932;2023-06-24T05:33:24;101311.77;;;17.55;69.10
79370;BME280;68835;53.096;17.932;2023-06-24T05:35:51;101306.77;;;17.60;68.89
79370;BME280;68835;53.096;17.932;2023-06-24T05:38:18;101310.04;;;17.68;69.31
79370;BME280;68835;53.096;17.932;2023-06-24T05:40:44;101310.30;;;17.80;68.99
79370;BME280;68835;53.096;17.932;2023-06-24T05:43:11;101307.02;;;17.89;68.22
79370;BME280;68835;53.096;17.932;2023-06-24T05:45:38;101303.76;;;17.97;68.08
79370;BME280;68835;53.096;17.932;2023-06-24T05:48:05;101305.71;;;18.10;68.38
79370;BME280;68835;53.096;17.932;2023-06-24T05:50:31;101308.91;;;18.23;68.07
79370;BME280;68835;53.096;17.932;2023-06-24T05:52:58;101313.07;;;18.31;67.36
79370;BME280;68835;53.096;17.932;2023-06-24T05:55:24;101311.11;;;18.32;67.10
79370;BME280;68835;53.096;17.932;2023-06-24T05:57:51;101311.86;;;18.28;66.78
79370;BME280;68835;53.096;17.932;2023-06-24T06:00:18;101313.65;;;18.26;67.04
79370;BME280;68835;53.096;17.932;2023-06-24T06:02:45;101315.42;;;18.27;66.96
79370;BME280;68835;53.096;17.932;2023-06-24T06:05:11;101319.86;;;18.26;67.21
79370;BME280;68835;53.096;17.932;2023-06-24T06:07:38;101319.55;;;18.22;67.00
79370;BME280;68835;53.096;17.932;2023-06-24T06:10:06;101315.74;;;18.16;66.77
79370;BME280;68835;53.096;17.932;2023-06-24T06:12:33;101315.81;;;18.10;67.16
79370;BME280;68835;53.096;17.932;2023-06-24T06:14:59;101315.35;;;18.05;67.13
79370;BME280;68835;53.096;17.932;2023-06-24T06:17:28;101312.52;;;18.04;67.17
79370;BME280;68835;53.096;17.932;2023-06-24T06:20:06;101308.73;;;18.10;67.27
79370;BME280;68835;53.096;17.932;2023-06-24T06:22:32;101309.17;;;18.17;67.29
79370;BME280;68835;53.096;17.932;2023-06-24T06:25:05;101311.02;;;18.25;67.05
79370;BME280;68835;53.096;17.932;2023-06-24T06:27:32;101311.84;;;18.31;66.93
79370;BME280;68835;53.096;17.932;2023-06-24T06:29:59;101311.21;;;18.38;66.95
79370;BME280;68835;53.096;17.932;2023-06-24T06:32:25;101314.41;;;18.50;66.85
79370;BME280;68835;53.096;17.932;2023-06-24T06:34:52;101310.84;;;18.65;66.56
79370;BME280;68835;53.096;17.932;2023-06-24T06:37:18;101311.02;;;18.78;66.09
79370;BME280;68835;53.096;17.932;2023-06-24T06:39:45;101306.80;;;18.88;65.61
79370;BME280;68835;53.096;17.932;2023-06-24T06:42:11;101305.98;;;18.96;65.37
79370;BME280;68835;53.096;17.932;2023-06-24T06:44:38;101297.87;;;19.03;65.25
79370;BME280;68835;53.096;17.932;2023-06-24T06:47:05;101297.53;;;19.14;64.41
79370;BME280;68835;53.096;17.932;2023-06-24T06:49:32;101299.21;;;19.19;64.17
79370;BME280;68835;53.096;17.932;2023-06-24T06:51:58;101299.79;;;19.27;64.11
79370;BME280;68835;53.096;17.932;2023-06-24T06:54:25;101300.72;;;19.35;63.71
79370;BME280;68835;53.096;17.932;2023-06-24T06:56:51;101295.13;;;19.40;63.35
79370;BME280;68835;53.096;17.932;2023-06-24T06:59:18;101299.82;;;19.46;63.01
79370;BME280;68835;53.096;17.932;2023-06-24T07:01:45;101300.80;;;19.50;63.42
79370;BME280;68835;53.096;17.932;2023-06-24T07:04:11;101312.55;;;19.59;62.97
79370;BME280;68835;53.096;17.932;2023-06-24T07:06:38;101311.60;;;19.64;61.35
79370;BME280;68835;53.096;17.932;2023-06-24T07:09:04;101312.33;;;19.72;61.57
79370;BME280;68835;53.096;17.932;2023-06-24T07:11:31;101305.68;;;19.86;60.95
79370;BME280;68835;53.096;17.932;2023-06-24T07:13:57;101307.34;;;19.92;60.00
79370;BME280;68835;53.096;17.932;2023-06-24T07:16:23;101306.99;;;20.00;60.54
79370;BME280;68835;53.096;17.932;2023-06-24T07:18:50;101306.86;;;20.15;59.76
79370;BME280;68835;53.096;17.932;2023-06-24T07:21:16;101309.95;;;20.29;59.19
79370;BME280;68835;53.096;17.932;2023-06-24T07:23:43;101311.13;;;20.41;58.68
79370;BME280;68835;53.096;17.932;2023-06-24T07:26:09;101311.34;;;20.57;58.34
79370;BME280;68835;53.096;17.932;2023-06-24T07:28:36;101315.41;;;20.73;56.75
79370;BME280;68835;53.096;17.932;2023-06-24T07:31:02;101313.39;;;20.76;57.66
79370;BME280;68835;53.096;17.932;2023-06-24T07:33:29;101315.16;;;20.84;56.91
79370;BME280;68835;53.096;17.932;2023-06-24T07:35:57;101311.32;;;20.89;56.97
79370;BME280;68835;53.096;17.932;2023-06-24T07:38:28;101316.44;;;20.98;57.02
79370;BME280;68835;53.096;17.932;2023-06-24T07:40:56;101311.23;;;21.07;56.62
79370;BME280;68835;53.096;17.932;2023-06-24T07:43:23;101315.59;;;21.11;55.68
79370;BME280;68835;53.096;17.932;2023-06-24T07:45:50;101315.89;;;20.98;53.91
79370;BME280;68835;53.096;17.932;2023-06-24T07:48:16;101320.34;;;20.83;55.29
79370;BME280;68835;53.096;17.932;2023-06-24T07:50:42;101319.77;;;20.78;55.43
79370;BME280;68835;53.096;17.932;2023-06-24T07:53:09;101319.62;;;20.76;55.98
79370;BME280;68835;53.096;17.932;2023-06-24T07:55:35;101322.75;;;20.71;55.67
79370;BME280;68835;53.096;17.932;2023-06-24T07:58:02;101330.66;;;20.68;55.61
79370;BME280;68835;53.096;17.932;2023-06-24T08:00:29;101331.83;;;20.70;55.61
79370;BME280;68835;53.096;17.932;2023-06-24T08:02:57;101334.81;;;20.71;55.34
79370;BME280;68835;53.096;17.932;2023-06-24T08:05:23;101334.12;;;20.71;55.03
79370;BME280;68835;53.096;17.932;2023-06-24T08:07:51;101338.85;;;20.75;54.97
79370;BME280;68835;53.096;17.932;2023-06-24T08:10:18;101337.23;;;20.75;55.21
79370;BME280;68835;53.096;17.932;2023-06-24T08:12:45;101337.90;;;20.78;54.87
79370;BME280;68835;53.096;17.932;2023-06-24T08:15:11;101341.02;;;20.73;54.84
79370;BME280;68835;53.096;17.932;2023-06-24T08:17:38;101341.24;;;20.63;54.87
79370;BME280;68835;53.096;17.932;2023-06-24T08:20:05;101342.80;;;20.57;55.77
79370;BME280;68835;53.096;17.932;2023-06-24T08:22:31;101344.92;;;20.58;55.72
79370;BME280;68835;53.096;17.932;2023-06-24T08:24:58;101342.92;;;20.60;55.47
79370;BME280;68835;53.096;17.932;2023-06-24T08:27:25;101350.54;;;20.61;54.80
79370;BME280;68835;53.096;17.932;2023-06-24T08:29:51;101353.41;;;20.60;55.57
79370;BME280;68835;53.096;17.932;2023-06-24T08:32:18;101361.48;;;20.65;55.09
79370;BME280;68835;53.096;17.932;2023-06-24T08:34:44;101359.66;;;20.68;54.59
79370;BME280;68835;53.096;17.932;2023-06-24T08:37:11;101360.02;;;20.75;55.27
79370;BME280;68835;53.096;17.932;2023-06-24T08:39:38;101356.92;;;20.86;54.68
79370;BME280;68835;53.096;17.932;2023-06-24T08:42:04;101356.44;;;21.00;55.40
79370;BME280;68835;53.096;17.932;2023-06-24T08:44:31;101359.63;;;21.15;55.50
79370;BME280;68835;53.096;17.932;2023-06-24T08:46:58;101352.64;;;21.31;55.54
79370;BME280;68835;53.096;17.932;2023-06-24T08:49:28;101358.39;;;21.51;55.36
79370;BME280;68835;53.096;17.932;2023-06-24T08:52:11;101360.36;;;21.72;54.76
79370;BME280;68835;53.096;17.932;2023-06-24T08:54:40;101363.23;;;21.85;53.93
79370;BME280;68835;53.096;17.932;2023-06-24T08:57:07;101363.25;;;21.90;53.55
79370;BME280;68835;53.096;17.932;2023-06-24T08:59:37;101362.05;;;21.95;54.04
79370;BME280;68835;53.096;17.932;2023-06-24T09:02:04;101362.58;;;22.02;53.99
79370;BME280;68835;53.096;17.932;2023-06-24T09:04:31;101365.95;;;22.16;53.33
79370;BME280;68835;53.096;17.932;2023-06-24T09:06:58;101356.02;;;22.21;52.58
79370;BME280;68835;53.096;17.932;2023-06-24T09:09:25;101355.38;;;22.25;51.99
79370;BME280;68835;53.096;17.932;2023-06-24T09:11:59;101355.44;;;22.35;51.61
79370;BME280;68835;53.096;17.932;2023-06-24T09:14:29;101355.73;;;22.43;52.00
79370;BME280;68835;53.096;17.932;2023-06-24T09:17:00;101349.38;;;22.59;51.41
79370;BME280;68835;53.096;17.932;2023-06-24T09:19:28;101345.39;;;22.72;51.79
79370;BME280;68835;53.096;17.932;2023-06-24T09:21:56;101347.36;;;22.96;51.75
79370;BME280;68835;53.096;17.932;2023-06-24T09:24:29;101352.66;;;23.20;50.67
79370;BME280;68835;53.096;17.932;2023-06-24T09:26:56;101355.34;;;23.41;49.73
79370;BME280;68835;53.096;17.932;2023-06-24T09:29:33;101354.38;;;23.49;49.14
79370;BME280;68835;53.096;17.932;2023-06-24T09:32:03;101353.11;;;23.65;49.09
79370;BME280;68835;53.096;17.932;2023-06-24T09:34:31;101352.31;;;23.83;48.15
79370;BME280;68835;53.096;17.932;2023-06-24T09:36:58;101346.81;;;23.98;48.81
79370;BME280;68835;53.096;17.932;2023-06-24T09:39:26;101347.39;;;24.25;47.81
79370;BME280;68835;53.096;17.932;2023-06-24T09:41:58;101348.15;;;24.34;46.31
79370;BME280;68835;53.096;17.932;2023-06-24T09:44:25;101343.58;;;24.32;46.19
79370;BME280;68835;53.096;17.932;2023-06-24T09:46:52;101347.36;;;24.51;46.67
79370;BME280;68835;53.096;17.932;2023-06-24T09:49:19;101345.30;;;24.62;47.23
79370;BME280;68835;53.096;17.932;2023-06-24T09:51:47;101348.91;;;24.57;45.46
79370;BME280;68835;53.096;17.932;2023-06-24T09:54:15;101345.80;;;24.40;46.38
79370;BME280;68835;53.096;17.932;2023-06-24T09:56:49;101348.08;;;24.46;46.47
79370;BME280;68835;53.096;17.932;2023-06-24T09:59:21;101348.06;;;24.83;45.75
79370;BME280;68835;53.096;17.932;2023-06-24T10:01:53;101340.20;;;24.96;45.03
79370;BME280;68835;53.096;17.932;2023-06-24T10:04:21;101341.61;;;25.05;44.37
79370;BME280;68835;53.096;17.932;2023-06-24T10:06:52;101347.34;;;25.45;45.35
79370;BME280;68835;53.096;17.932;2023-06-24T10:09:19;101340.69;;;25.87;43.03
79370;BME280;68835;53.096;17.932;2023-06-24T10:11:46;101340.56;;;25.98;42.66
79370;BME280;68835;53.096;17.932;2023-06-24T10:14:14;101335.09;;;26.28;40.99
79370;BME280;68835;53.096;17.932;2023-06-24T10:16:44;101335.90;;;26.65;41.14
79370;BME280;68835;53.096;17.932;2023-06-24T10:19:19;101336.66;;;27.16;39.67
79370;BME280;68835;53.096;17.932;2023-06-24T10:21:51;101332.10;;;27.43;37.66
79370;BME280;68835;53.096;17.932;2023-06-24T10:27:02;101334.12;;;28.17;38.76
79370;BME280;68835;53.096;17.932;2023-06-24T10:29:38;101328.88;;;28.38;35.95
79370;BME280;68835;53.096;17.932;2023-06-24T10:32:07;101329.21;;;28.38;36.46
79370;BME280;68835;53.096;17.932;2023-06-24T10:34:43;101332.22;;;28.43;35.72
79370;BME280;68835;53.096;17.932;2023-06-24T10:37:22;101328.15;;;28.51;35.36
79370;BME280;68835;53.096;17.932;2023-06-24T10:39:57;101325.00;;;28.26;35.46
79370;BME280;68835;53.096;17.932;2023-06-24T10:42:44;101324.03;;;28.21;35.60
79370;BME280;68835;53.096;17.932;2023-06-24T10:45:15;101324.00;;;28.05;35.68
79370;BME280;68835;53.096;17.932;2023-06-24T10:47:46;101322.09;;;27.66;36.03
79370;BME280;68835;53.096;17.932;2023-06-24T10:50:15;101316.13;;;27.94;36.53
79370;BME280;68835;53.096;17.932;2023-06-24T10:52:50;101328.11;;;28.55;34.71
79370;BME280;68835;53.096;17.932;2023-06-24T10:55:23;101322.08;;;28.56;34.75
79370;BME280;68835;53.096;17.932;2023-06-24T10:57:54;101317.67;;;28.29;35.19
79370;BME280;68835;53.096;17.932;2023-06-24T11:00:22;101318.42;;;28.61;35.71
79370;BME280;68835;53.096;17.932;2023-06-24T11:02:49;101325.30;;;29.11;34.98
79370;BME280;68835;53.096;17.932;2023-06-24T11:05:16;101323.40;;;29.52;35.30
79370;BME280;68835;53.096;17.932;2023-06-24T11:07:43;101316.86;;;30.18;33.84
79370;BME280;68835;53.096;17.932;2023-06-24T11:10:11;101318.52;;;30.69;32.67
79370;BME280;68835;53.096;17.932;2023-06-24T11:12:39;101316.76;;;30.51;32.42
79370;BME280;68835;53.096;17.932;2023-06-24T11:15:10;101308.95;;;30.00;32.97
79370;BME280;68835;53.096;17.932;2023-06-24T11:17:38;101313.27;;;29.19;34.08
79370;BME280;68835;53.096;17.932;2023-06-24T11:20:14;101315.30;;;28.68;34.47
79370;BME280;68835;53.096;17.932;2023-06-24T11:22:42;101306.91;;;28.15;34.64
79370;BME280;68835;53.096;17.932;2023-06-24T11:25:19;101313.57;;;27.78;35.53
79370;BME280;68835;53.096;17.932;2023-06-24T11:27:49;101314.29;;;27.85;36.12
79370;BME280;68835;53.096;17.932;2023-06-24T11:30:16;101313.98;;;28.63;35.69
79370;BME280;68835;53.096;17.932;2023-06-24T11:32:44;101314.16;;;29.50;34.83
79370;BME280;68835;53.096;17.932;2023-06-24T11:35:12;101311.45;;;30.21;32.33
79370;BME280;68835;53.096;17.932;2023-06-24T11:37:42;101307.90;;;30.05;32.03
79370;BME280;68835;53.096;17.932;2023-06-24T11:40:12;101303.33;;;29.97;33.55
79370;BME280;68835;53.096;17.932;2023-06-24T11:42:40;101305.59;;;30.73;32.95
79370;BME280;68835;53.096;17.932;2023-06-24T11:45:08;101308.23;;;30.68;30.72
79370;BME280;68835;53.096;17.932;2023-06-24T11:47:37;101305.42;;;30.07;32.03
79370;BME280;68835;53.096;17.932;2023-06-24T11:50:05;101308.84;;;29.36;32.93
79370;BME280;68835;53.096;17.932;2023-06-24T11:55:02;101314.09;;;28.45;34.14
79370;BME280;68835;53.096;17.932;2023-06-24T12:00:30;101310.47;;;28.68;34.54
79370;BME280;68835;53.096;17.932;2023-06-24T12:03:02;101311.23;;;29.48;34.63
79370;BME280;68835;53.096;17.932;2023-06-24T12:05:30;101308.40;;;30.32;33.52
79370;BME280;68835;53.096;17.932;2023-06-24T12:08:05;101307.98;;;30.97;32.04
79370;BME280;68835;53.096;17.932;2023-06-24T12:10:33;101303.26;;;30.97;30.92
79370;BME280;68835;53.096;17.932;2023-06-24T12:13:01;101299.73;;;31.12;32.22
79370;BME280;68835;53.096;17.932;2023-06-24T12:15:28;101296.15;;;31.57;31.52
79370;BME280;68835;53.096;17.932;2023-06-24T12:17:55;101288.97;;;32.10;30.21
79370;BME280;68835;53.096;17.932;2023-06-24T12:20:22;101289.62;;;32.44;29.07
79370;BME280;68835;53.096;17.932;2023-06-24T12:22:48;101287.39;;;32.69;28.50
79370;BME280;68835;53.096;17.932;2023-06-24T12:25:16;101281.50;;;33.12;28.09
79370;BME280;68835;53.096;17.932;2023-06-24T12:27:43;101282.95;;;33.68;28.24
79370;BME280;68835;53.096;17.932;2023-06-24T12:30:10;101279.48;;;33.89;27.51
79370;BME280;68835;53.096;17.932;2023-06-24T12:32:38;101282.27;;;33.09;29.10
79370;BME280;68835;53.096;17.932;2023-06-24T12:35:05;101288.48;;;33.06;27.92
79370;BME280;68835;53.096;17.932;2023-06-24T12:37:35;101283.57;;;32.47;28.53
79370;BME280;68835;53.096;17.932;2023-06-24T12:40:05;101280.70;;;31.42;29.64
79370;BME280;68835;53.096;17.932;2023-06-24T12:42:33;101279.91;;;30.98;30.50
79370;BME280;68835;53.096;17.932;2023-06-24T12:45:00;101284.85;;;31.82;29.21
79370;BME280;68835;53.096;17.932;2023-06-24T12:47:26;101284.17;;;32.21;28.27
79370;BME280;68835;53.096;17.932;2023-06-24T12:49:53;101283.91;;;32.55;28.78
79370;BME280;68835;53.096;17.932;2023-06-24T12:52:19;101291.80;;;33.14;28.14
79370;BME280;68835;53.096;17.932;2023-06-24T12:54:46;101288.19;;;33.75;26.27
79370;BME280;68835;53.096;17.932;2023-06-24T12:57:14;101284.09;;;33.90;26.70
79370;BME280;68835;53.096;17.932;2023-06-24T12:59:41;101286.98;;;34.44;25.84
79370;BME280;68835;53.096;17.932;2023-06-24T13:02:08;101284.98;;;34.47;25.03
79370;BME280;68835;53.096;17.932;2023-06-24T13:04:34;101281.16;;;34.51;25.55